createdAt,value
2018-09-11T00:03:54.648Z,100385.99
2018-09-11T00:08:39.006Z,100380.09
2018-09-11T00:13:22.327Z,100373.34
2018-09-11T00:18:05.706Z,100369.71
2018-09-11T00:22:50.165Z,100364.02
2018-09-11T00:27:33.710Z,100366.50
2018-09-11T00:32:18.526Z,100370.25
2018-09-11T00:37:02.024Z,100371.16
2018-09-11T00:41:45.572Z,100376.33
2018-09-11T00:46:29.133Z,100374.98
2018-09-11T00:51:12.601Z,100371.08
2018-09-11T00:55:55.768Z,100366.36
2018-09-11T01:00:39.376Z,100370.90
2018-09-11T01:05:22.762Z,100373.75
2018-09-11T01:10:12.533Z,100377.63
2018-09-11T01:14:55.881Z,100383.97
2018-09-11T01:19:42.472Z,100376.91
2018-09-11T01:24:25.938Z,100375.29
2018-09-11T01:29:09.454Z,100368.55
2018-09-11T01:33:52.725Z,100364.34
2018-09-11T01:38:36.280Z,100371.80
2018-09-11T01:43:19.763Z,100365.16
2018-09-11T01:48:03.200Z,100370.02
2018-09-11T01:52:46.713Z,100364.19
2018-09-11T01:57:30.017Z,100364.69
2018-09-11T02:02:16.678Z,100365.06
2018-09-11T02:07:00.135Z,100362.50
2018-09-11T02:11:43.567Z,100371.67
2018-09-11T02:16:26.642Z,100372.95
2018-09-11T02:21:10.152Z,100381.36
2018-09-11T02:25:53.606Z,100375.27
2018-09-11T02:30:36.916Z,100371.22
2018-09-11T02:35:20.362Z,100371.35
2018-09-11T02:40:04.781Z,100367.00
2018-09-11T02:44:48.335Z,100358.22
2018-09-11T02:49:32.824Z,100380.49
2018-09-11T02:54:16.318Z,100368.69
2018-09-11T02:59:00.882Z,100383.69
2018-09-11T03:03:44.303Z,100386.20
2018-09-11T03:08:27.950Z,100383.55
2018-09-11T03:13:11.249Z,100387.61
2018-09-11T03:17:54.627Z,100401.52
2018-09-11T03:22:38.009Z,100400.65
2018-09-11T03:27:21.416Z,100398.80
2018-09-11T03:33:35.187Z,100393.31
2018-09-11T03:38:19.771Z,100399.78
2018-09-11T03:43:03.119Z,100402.34
2018-09-11T03:47:46.561Z,100417.64
2018-09-11T03:52:31.035Z,100429.63
2018-09-11T03:57:14.427Z,100430.88
2018-09-11T04:01:58.726Z,100432.68
2018-09-11T04:06:42.210Z,100430.48
2018-09-11T04:11:26.868Z,100427.73
2018-09-11T04:16:10.285Z,100432.95
2018-09-11T04:20:53.861Z,100434.78
2018-09-11T04:25:37.429Z,100443.98
2018-09-11T04:30:24.591Z,100442.45
2018-09-11T04:35:07.903Z,100446.34
2018-09-11T04:39:54.950Z,100452.38
2018-09-11T04:44:42.093Z,100458.17
2018-09-11T04:49:25.792Z,100462.02
2018-09-11T04:54:09.262Z,100461.72
2018-09-11T04:58:56.208Z,100457.61
2018-09-11T05:03:39.617Z,100449.95
2018-09-11T05:08:29.113Z,100455.28
2018-09-11T05:13:12.516Z,100465.30
2018-09-11T05:18:02.249Z,100455.49
2018-09-11T05:22:46.303Z,100464.67
2018-09-11T05:27:30.758Z,100467.25
2018-09-11T05:32:18.503Z,100468.36
2018-09-11T05:37:01.865Z,100474.19
2018-09-11T05:41:48.648Z,100470.30
2018-09-11T05:46:32.113Z,100475.97
2018-09-11T05:51:19.280Z,100472.91
2018-09-11T05:56:02.712Z,100468.58
2018-09-11T06:00:50.002Z,100467.52
2018-09-11T06:05:33.389Z,100462.83
2018-09-11T06:10:19.927Z,100460.73
2018-09-11T06:15:03.254Z,100463.95
2018-09-11T06:19:49.853Z,100461.05
2018-09-11T06:24:38.669Z,100453.65
2018-09-11T06:29:22.536Z,100451.02
2018-09-11T06:34:06.049Z,100468.32
2018-09-11T06:38:49.648Z,100473.53
2018-09-11T06:43:33.085Z,100467.64
2018-09-11T06:48:20.097Z,100468.27
2018-09-11T06:53:03.382Z,100474.86
2018-09-11T06:57:47.087Z,100473.94
2018-09-11T07:02:30.449Z,100480.48
2018-09-11T07:07:13.880Z,100478.94
2018-09-11T07:11:57.474Z,100471.57
2018-09-11T07:16:40.896Z,100476.22
2018-09-11T07:21:25.225Z,100482.91
2018-09-11T07:26:09.122Z,100480.24
2018-09-11T07:30:58.446Z,100480.02
2018-09-11T07:35:41.987Z,100490.12
2018-09-11T07:40:29.062Z,100477.47
2018-09-11T07:45:12.573Z,100477.56
2018-09-11T07:50:00.386Z,100475.50
2018-09-11T07:54:43.946Z,100466.38
2018-09-11T07:59:31.309Z,100460.49
2018-09-11T08:04:14.841Z,100463.85
2018-09-11T08:08:59.185Z,100460.85
2018-09-11T08:13:44.033Z,100448.65
2018-09-11T08:18:27.652Z,100445.66
2018-09-11T08:23:11.237Z,100439.26
2018-09-11T08:27:54.716Z,100434.95
2018-09-11T08:32:38.209Z,100439.20
2018-09-11T08:37:25.366Z,100425.77
2018-09-11T08:42:08.894Z,100434.52
2018-09-11T08:46:52.443Z,100438.44
2018-09-11T08:51:40.576Z,100442.95
2018-09-11T08:56:23.981Z,100454.53
2018-09-11T09:01:08.688Z,100450.53
2018-09-11T09:05:52.130Z,100460.52
2018-09-11T09:10:36.757Z,100452.33
2018-09-11T09:15:20.598Z,100453.39
2018-09-11T09:20:10.041Z,100454.86
2018-09-11T09:24:53.991Z,100448.11
2018-09-11T09:29:37.445Z,100448.47
2018-09-11T09:34:20.813Z,100444.98
2018-09-11T09:39:05.881Z,100457.48
2018-09-11T09:43:49.363Z,100457.18
2018-09-11T09:48:36.468Z,100444.05
2018-09-11T09:53:19.940Z,100449.30
2018-09-11T09:58:04.496Z,100458.88
2018-09-11T10:02:47.977Z,100449.95
2018-09-11T10:07:35.164Z,100453.98
2018-09-11T10:12:19.473Z,100454.77
2018-09-11T10:17:03.927Z,100451.13
2018-09-11T10:21:47.451Z,100454.59
2018-09-11T10:26:30.869Z,100458.01
2018-09-11T10:31:14.676Z,100452.45
2018-09-11T10:35:58.060Z,100454.98
2018-09-11T10:40:42.465Z,100450.08
2018-09-11T10:45:25.757Z,100444.50
2018-09-11T10:50:14.677Z,100438.77
2018-09-11T10:54:58.156Z,100439.97
2018-09-11T10:59:44.923Z,100434.03
2018-09-11T11:04:28.380Z,100428.84
2018-09-11T11:09:15.561Z,100422.83
2018-09-11T11:13:58.962Z,100418.02
2018-09-11T11:18:46.257Z,100417.67
2018-09-11T11:23:29.711Z,100401.70
2018-09-11T11:28:16.339Z,100395.21
2018-09-11T11:32:59.480Z,100387.41
2018-09-11T11:37:42.959Z,100394.03
2018-09-11T11:42:26.515Z,100393.66
2018-09-11T11:47:13.111Z,100385.75
2018-09-11T11:51:56.506Z,100384.08
2018-09-11T11:56:39.963Z,100381.23
2018-09-11T12:01:23.373Z,100370.98
2018-09-11T12:06:06.339Z,100359.23
2018-09-11T12:10:53.413Z,100374.30
2018-09-11T12:15:36.981Z,100373.59
2018-09-11T12:20:21.223Z,100371.45
2018-09-11T12:25:04.510Z,100374.26
2018-09-11T12:29:51.153Z,100374.89
2018-09-11T12:34:35.256Z,100378.62
2018-09-11T12:39:22.168Z,100373.73
2018-09-11T12:44:08.489Z,100377.16
2018-09-11T12:48:51.899Z,100371.92
2018-09-11T12:53:35.589Z,100371.41
2018-09-11T12:58:19.357Z,100363.82
2018-09-11T13:03:02.810Z,100367.36
2018-09-11T13:07:46.368Z,100374.88
2018-09-11T13:12:29.845Z,100372.96
2018-09-11T13:17:17.306Z,100362.36
2018-09-11T13:22:00.779Z,100361.64
2018-09-11T13:26:47.860Z,100367.36
2018-09-11T13:31:31.382Z,100359.23
2018-09-11T13:36:14.921Z,100368.50
2018-09-11T13:41:01.808Z,100395.34
2018-09-11T13:45:45.252Z,100393.64
2018-09-11T13:50:29.815Z,100411.98
2018-09-11T13:55:13.330Z,100411.27
2018-09-11T14:00:00.360Z,100415.03
2018-09-11T14:04:43.700Z,100426.19
2018-09-11T14:09:27.452Z,100423.84
2018-09-11T14:14:11.747Z,100419.97
2018-09-11T14:18:55.623Z,100421.81
2018-09-11T14:23:39.140Z,100413.75
2018-09-11T14:28:23.024Z,100418.09
2018-09-11T14:33:06.414Z,100419.66
2018-09-11T14:37:53.239Z,100427.91
2018-09-11T14:42:36.752Z,100423.62
2018-09-11T14:47:20.522Z,100435.08
2018-09-11T14:52:04.152Z,100431.59
2018-09-11T14:56:51.228Z,100439.39
2018-09-11T15:01:34.711Z,100456.41
2018-09-11T15:06:18.186Z,100451.71
2018-09-11T15:11:01.681Z,100446.73
2018-09-11T15:15:45.537Z,100446.01
2018-09-11T15:20:32.082Z,100444.75
2018-09-11T15:25:15.658Z,100442.80
2018-09-11T15:30:00.462Z,100447.77
2018-09-11T15:34:43.831Z,100450.80
2018-09-11T15:39:31.306Z,100447.28
2018-09-11T15:44:14.735Z,100447.28
2018-09-11T15:48:59.249Z,100447.81
2018-09-11T15:53:42.720Z,100447.57
2018-09-11T15:58:29.181Z,100446.02
2018-09-11T16:03:12.734Z,100455.66
2018-09-11T16:07:56.420Z,100450.16
2018-09-11T16:12:40.572Z,100450.41
2018-09-11T16:17:24.349Z,100454.08
2018-09-11T16:22:07.808Z,100446.76
2018-09-11T16:26:54.907Z,100449.09
2018-09-11T16:31:38.425Z,100450.41
2018-09-11T16:36:21.967Z,100461.02
2018-09-11T16:41:05.675Z,100466.02
2018-09-11T16:45:49.019Z,100463.31
2018-09-11T16:50:33.676Z,100463.91
2018-09-11T16:55:17.230Z,100468.30
2018-09-11T17:00:01.007Z,100472.95
2018-09-11T17:04:44.503Z,100474.27
2018-09-11T17:09:29.035Z,100485.96
2018-09-11T17:14:12.622Z,100486.59
2018-09-11T17:18:56.257Z,100505.66
2018-09-11T17:23:39.783Z,100505.39
2018-09-11T17:28:24.068Z,100510.74
2018-09-11T17:33:07.399Z,100514.86
2018-09-11T17:37:51.012Z,100530.19
2018-09-11T17:42:34.555Z,100524.73
2018-09-11T17:47:22.115Z,100528.34
2018-09-11T17:52:05.652Z,100533.54
2018-09-11T17:56:50.162Z,100539.08
2018-09-11T18:01:33.829Z,100531.70
2018-09-11T18:06:21.420Z,100540.33
2018-09-11T18:11:04.876Z,100551.15
2018-09-11T18:15:48.413Z,100557.73
2018-09-11T18:20:32.048Z,100553.99
2018-09-11T18:25:15.221Z,100562.45
2018-09-11T18:30:00.115Z,100562.63
2018-09-11T18:34:44.283Z,100568.99
2018-09-11T18:39:28.897Z,100565.48
2018-09-11T18:44:12.401Z,100562.59
2018-09-11T18:48:57.203Z,100566.14
2018-09-11T18:53:40.654Z,100569.55
2018-09-11T18:58:24.290Z,100572.95
2018-09-11T19:03:08.810Z,100572.20
2018-09-11T19:07:56.764Z,100573.00
2018-09-11T19:12:41.273Z,100587.02
2018-09-11T19:17:25.805Z,100583.09
2018-09-11T19:22:09.096Z,100585.09
2018-09-11T19:26:56.319Z,100579.84
2018-09-11T19:31:39.816Z,100588.86
2018-09-11T19:36:24.458Z,100590.27
2018-09-11T19:41:08.756Z,100585.17
2018-09-11T19:45:52.614Z,100591.06
2018-09-11T19:50:36.336Z,100590.44
2018-09-11T19:55:19.896Z,100596.98
2018-09-11T20:00:10.599Z,100594.91
2018-09-11T20:04:54.032Z,100603.22
2018-09-11T20:09:41.462Z,100602.14
2018-09-11T20:14:24.892Z,100603.20
2018-09-11T20:19:08.689Z,100598.91
2018-09-11T20:23:52.216Z,100594.38
2018-09-11T20:28:38.843Z,100593.17
2018-09-11T20:33:22.508Z,100593.59
2018-09-11T20:38:06.060Z,100595.97
2018-09-11T20:42:54.616Z,100602.73
2018-09-11T20:47:39.368Z,100605.45
2018-09-11T20:52:22.848Z,100610.83
2018-09-11T20:57:09.470Z,100611.41
2018-09-11T21:01:52.805Z,100606.53
2018-09-11T21:06:36.309Z,100604.38
2018-09-11T21:11:19.829Z,100596.19
2018-09-11T21:16:04.560Z,100599.83
2018-09-11T21:20:48.069Z,100599.86
2018-09-11T21:25:31.614Z,100595.03
2018-09-11T21:30:15.562Z,100600.11
2018-09-11T21:34:59.179Z,100599.97
2018-09-11T21:39:42.611Z,100601.77
2018-09-11T21:44:26.162Z,100608.84
2018-09-11T21:49:16.702Z,100613.30
2018-09-11T21:54:00.489Z,100615.71
2018-09-11T21:58:44.244Z,100624.45
2018-09-11T22:03:27.791Z,100620.33
2018-09-11T22:08:11.347Z,100620.94
2018-09-11T22:12:54.890Z,100617.07
2018-09-11T22:17:39.609Z,100616.27
2018-09-11T22:22:22.832Z,100609.09
2018-09-11T22:27:06.400Z,100617.72
2018-09-11T22:31:49.865Z,100620.94
2018-09-11T22:36:33.306Z,100630.37
2018-09-11T22:41:16.630Z,100626.99
2018-09-11T22:46:01.194Z,100613.14
2018-09-11T22:50:44.492Z,100623.23
2018-09-11T22:55:28.232Z,100620.52
2018-09-11T23:00:11.570Z,100622.28
2018-09-11T23:04:55.053Z,100619.31
2018-09-11T23:09:38.432Z,100621.70
2018-09-11T23:14:21.963Z,100626.84
2018-09-11T23:19:08.983Z,100620.48
2018-09-11T23:23:52.535Z,100619.05
2018-09-11T23:28:36.034Z,100626.71
2018-09-11T23:33:19.491Z,100616.05
2018-09-11T23:38:04.166Z,100617.29
2018-09-11T23:42:47.612Z,100618.41
2018-09-11T23:47:31.260Z,100617.05
2018-09-11T23:52:14.787Z,100627.40
2018-09-11T23:57:01.580Z,100632.73
